Terminal Aerodrome Forecast
Issued by NWS

Home | Current Version | Previous Version | Text Only | Print | Product List | Glossary On
Versions: 1 2 3 4 5 6 7 8 9 10
520
FTUS46 KSGX 240205 AAA
TAFPSP
TAF AMD
KPSP 240205Z 2402/2424 31015G25KT P6SM SCT250
     FM240600 33010KT P6SM SCT250
     FM240900 VRB06KT P6SM SCT250
     FM241500 33012KT P6SM SCT250
     FM242000 33015G25KT P6SM SCT250=

USA.gov is the U.S. government's official web portal to all federal, state and local government web resources and services.